createdAt,value
2023-03-08T00:01:05.707Z,99769.25
2023-03-08T00:03:35.350Z,99768.75
2023-03-08T00:06:06.113Z,99756.81
2023-03-08T00:08:34.530Z,99712.78
2023-03-08T00:11:07.037Z,99752.41
2023-03-08T00:13:36.096Z,99753.53
2023-03-08T00:16:06.787Z,99763.59
2023-03-08T00:18:38.010Z,99755.66
2023-03-08T00:21:08.278Z,99768.88
2023-03-08T00:23:36.979Z,99749.66
2023-03-08T00:26:06.444Z,99761.28
2023-03-08T00:28:35.259Z,99755.78
2023-03-08T00:31:06.268Z,99758.00
2023-03-08T00:33:37.208Z,99759.63
2023-03-08T00:36:07.137Z,99755.84
2023-03-08T00:38:37.487Z,99763.09
2023-03-08T00:41:06.261Z,99752.91
2023-03-08T00:43:35.427Z,99763.34
2023-03-08T00:46:03.572Z,99766.94
2023-03-08T00:48:31.633Z,99763.81
2023-03-08T00:51:01.705Z,99769.84
2023-03-08T00:53:30.332Z,99767.34
2023-03-08T00:55:59.546Z,99743.91
2023-03-08T00:58:30.207Z,99739.22
2023-03-08T01:00:59.200Z,99761.53
2023-03-08T01:03:27.950Z,99754.91
2023-03-08T01:05:57.858Z,99765.59
2023-03-08T01:08:28.544Z,99753.75
2023-03-08T01:10:58.928Z,99753.50
2023-03-08T01:13:28.410Z,99757.66
2023-03-08T01:15:57.087Z,99762.81
2023-03-08T01:18:25.888Z,99759.31
2023-03-08T01:20:58.398Z,99768.75
2023-03-08T01:23:28.706Z,99766.13
2023-03-08T01:26:00.898Z,99767.78
2023-03-08T01:28:31.745Z,99762.81
2023-03-08T01:31:03.645Z,99771.03
2023-03-08T01:33:31.917Z,99756.81
2023-03-08T01:36:00.594Z,99763.25
2023-03-08T01:38:30.208Z,99759.31
2023-03-08T01:40:58.785Z,99768.00
2023-03-08T01:43:29.535Z,99759.31
2023-03-08T01:46:12.118Z,99751.84
2023-03-08T01:48:45.665Z,99753.16
2023-03-08T01:51:20.247Z,99751.94
2023-03-08T01:53:50.392Z,99750.47
2023-03-08T01:56:20.916Z,99757.88
2023-03-08T01:58:51.564Z,99740.69
2023-03-08T02:01:22.140Z,99761.63
2023-03-08T02:03:50.641Z,99742.88
2023-03-08T02:06:20.571Z,99749.38
2023-03-08T02:08:50.270Z,99738.81
2023-03-08T02:11:20.987Z,99740.78
2023-03-08T02:13:51.063Z,99758.13
2023-03-08T02:16:19.935Z,99754.88
2023-03-08T02:18:54.143Z,99753.78
2023-03-08T02:21:22.435Z,99735.31
2023-03-08T02:23:52.470Z,99749.75
2023-03-08T02:26:21.351Z,99747.16
2023-03-08T02:28:50.162Z,99732.72
2023-03-08T02:31:18.585Z,99734.66
2023-03-08T02:33:46.807Z,99740.59
2023-03-08T02:36:14.888Z,99728.16
2023-03-08T02:38:43.162Z,99739.94
2023-03-08T02:41:12.723Z,99718.06
2023-03-08T02:43:41.326Z,99712.16
2023-03-08T02:46:12.779Z,99725.72
2023-03-08T02:48:40.906Z,99736.31
2023-03-08T02:51:09.208Z,99736.00
2023-03-08T02:53:37.301Z,99725.09
2023-03-08T02:56:06.037Z,99736.13
2023-03-08T02:58:35.596Z,99733.06
2023-03-08T03:01:03.730Z,99730.94
2023-03-08T03:03:32.568Z,99739.59
2023-03-08T03:06:01.081Z,99746.66
2023-03-08T03:08:31.522Z,99741.47
2023-03-08T03:10:59.728Z,99742.78
2023-03-08T03:13:28.157Z,99736.63
2023-03-08T03:15:58.207Z,99745.75
2023-03-08T03:18:26.386Z,99737.66
2023-03-08T03:20:54.490Z,99733.47
2023-03-08T03:23:22.530Z,99739.81
2023-03-08T03:25:50.924Z,99747.00
2023-03-08T03:28:19.535Z,99746.81
2023-03-08T03:30:47.733Z,99752.97
2023-03-08T03:33:17.583Z,99744.78
2023-03-08T03:35:45.765Z,99748.78
2023-03-08T03:38:13.988Z,99749.34
2023-03-08T03:40:42.195Z,99766.41
2023-03-08T03:43:10.287Z,99755.53
2023-03-08T03:45:38.296Z,99744.22
2023-03-08T03:48:06.798Z,99761.31
2023-03-08T03:50:36.377Z,99767.63
2023-03-08T03:53:04.390Z,99776.38
2023-03-08T03:55:32.764Z,99778.19
2023-03-08T03:58:00.996Z,99778.34
2023-03-08T04:00:29.071Z,99782.25
2023-03-08T04:02:57.323Z,99779.13
2023-03-08T04:05:25.733Z,99734.59
2023-03-08T04:07:55.283Z,99779.72
2023-03-08T04:10:23.506Z,99786.84
2023-03-08T04:12:51.644Z,99784.03
2023-03-08T04:15:19.701Z,99760.34
2023-03-08T04:17:47.828Z,99794.34
2023-03-08T04:20:15.961Z,99792.81
2023-03-08T04:22:44.102Z,99782.47
2023-03-08T04:25:13.692Z,99795.66
2023-03-08T04:27:41.873Z,99783.97
2023-03-08T04:30:11.310Z,99797.44
2023-03-08T04:32:39.339Z,99797.16
2023-03-08T04:35:07.914Z,99785.47
2023-03-08T04:37:37.516Z,99805.59
2023-03-08T04:40:09.496Z,99800.31
2023-03-08T04:42:40.978Z,99795.16
2023-03-08T04:45:10.086Z,99798.19
2023-03-08T04:47:38.138Z,99805.25
2023-03-08T04:50:06.718Z,99799.41
2023-03-08T04:52:34.795Z,99810.47
2023-03-08T04:55:03.224Z,99806.97
2023-03-08T04:57:31.304Z,99807.44
2023-03-08T05:00:00.720Z,99821.72
2023-03-08T05:02:28.744Z,99823.03
2023-03-08T05:04:56.821Z,99826.03
2023-03-08T05:07:24.962Z,99834.53
2023-03-08T05:09:53.056Z,99838.88
2023-03-08T05:12:21.133Z,99839.03
2023-03-08T05:14:49.198Z,99837.91
2023-03-08T05:17:18.830Z,99850.38
2023-03-08T05:19:47.013Z,99845.69
2023-03-08T05:22:15.383Z,99856.72
2023-03-08T05:24:43.526Z,99860.34
2023-03-08T05:27:11.586Z,99865.13
2023-03-08T05:29:39.829Z,99864.56
2023-03-08T05:32:08.364Z,99871.13
2023-03-08T05:34:38.180Z,99871.78
2023-03-08T05:37:06.283Z,99855.19
2023-03-08T05:39:34.199Z,99874.84
2023-03-08T05:42:02.165Z,99874.19
2023-03-08T05:44:30.787Z,99874.91
2023-03-08T05:46:58.852Z,99883.31
2023-03-08T05:49:26.995Z,99883.25
2023-03-08T05:51:56.468Z,99888.50
2023-03-08T05:54:24.586Z,99893.75
2023-03-08T05:56:52.662Z,99884.91
2023-03-08T05:59:20.799Z,99895.94
2023-03-08T06:01:48.920Z,99890.31
2023-03-08T06:04:16.902Z,99903.28
2023-03-08T06:06:44.899Z,99894.69
2023-03-08T06:09:14.194Z,99905.44
2023-03-08T06:11:42.222Z,99907.53
2023-03-08T06:14:12.170Z,99914.25
2023-03-08T06:16:41.076Z,99918.69
2023-03-08T06:19:09.142Z,99921.47
2023-03-08T06:21:37.099Z,99924.84
2023-03-08T06:24:05.044Z,99925.75
2023-03-08T06:26:34.411Z,99933.09
2023-03-08T06:29:02.326Z,99937.13
2023-03-08T06:31:30.425Z,99940.56
2023-03-08T06:33:58.330Z,99946.31
2023-03-08T06:36:26.235Z,99942.91
2023-03-08T06:38:54.191Z,99941.72
2023-03-08T06:41:22.180Z,99942.09
2023-03-08T06:43:51.501Z,99947.53
2023-03-08T06:46:20.572Z,99951.31
2023-03-08T06:48:49.550Z,99945.84
2023-03-08T06:51:18.927Z,99964.66
2023-03-08T06:53:47.429Z,99963.84
2023-03-08T06:56:17.338Z,99967.03
2023-03-08T06:58:45.420Z,99971.78
2023-03-08T07:01:15.146Z,99972.31
2023-03-08T07:03:45.395Z,99964.94
2023-03-08T07:06:13.490Z,99966.53
2023-03-08T07:08:42.188Z,99973.63
2023-03-08T07:11:10.955Z,99965.34
2023-03-08T07:13:39.677Z,99964.06
2023-03-08T07:16:09.721Z,99968.75
2023-03-08T07:18:39.842Z,99963.19
2023-03-08T07:21:08.514Z,99977.63
2023-03-08T07:23:36.631Z,99975.22
2023-03-08T07:26:06.391Z,99967.91
2023-03-08T07:28:34.737Z,99968.50
2023-03-08T07:31:02.836Z,99978.56
2023-03-08T07:33:30.974Z,99973.31
2023-03-08T07:36:03.262Z,99989.91
2023-03-08T07:38:31.812Z,99983.16
2023-03-08T07:40:59.782Z,99939.81
2023-03-08T07:43:30.104Z,99990.34
2023-03-08T07:46:02.091Z,99993.81
2023-03-08T07:48:30.665Z,99990.22
2023-03-08T07:51:04.261Z,99979.75
2023-03-08T07:53:33.134Z,99993.41
2023-03-08T07:56:02.097Z,99991.59
2023-03-08T07:58:30.728Z,99974.50
2023-03-08T08:00:58.944Z,99978.34
2023-03-08T08:03:27.148Z,99982.19
2023-03-08T08:05:55.607Z,99991.09
2023-03-08T08:08:25.046Z,99981.28
2023-03-08T08:10:53.376Z,99990.72
2023-03-08T08:13:21.443Z,99985.84
2023-03-08T08:15:58.552Z,99992.13
2023-03-08T08:18:26.565Z,99981.41
2023-03-08T08:21:02.798Z,99999.16
2023-03-08T08:23:33.488Z,99990.22
2023-03-08T08:26:02.163Z,99983.63
2023-03-08T08:28:30.517Z,99991.91
2023-03-08T08:31:01.228Z,99989.56
2023-03-08T08:33:29.877Z,99979.63
2023-03-08T08:35:58.165Z,99981.06
2023-03-08T08:38:26.753Z,99975.38
2023-03-08T08:40:56.112Z,99984.88
2023-03-08T08:43:24.157Z,99996.19
2023-03-08T08:45:57.013Z,99986.63
2023-03-08T08:48:25.436Z,99983.09
2023-03-08T08:50:53.969Z,99965.19
2023-03-08T08:53:23.133Z,99985.69
2023-03-08T08:55:51.060Z,99990.84
2023-03-08T08:58:20.634Z,99979.81
2023-03-08T09:00:49.717Z,99993.19
2023-03-08T09:03:18.206Z,99983.78
2023-03-08T09:05:46.799Z,99995.81
2023-03-08T09:08:14.780Z,99996.16
2023-03-08T09:10:43.274Z,99987.81
2023-03-08T09:13:13.286Z,99988.59
2023-03-08T09:15:42.901Z,99989.25
2023-03-08T09:18:10.947Z,99976.00
2023-03-08T09:20:38.946Z,99974.00
2023-03-08T09:23:08.646Z,99984.97
2023-03-08T09:25:37.146Z,99979.91
2023-03-08T09:28:05.474Z,99969.84
2023-03-08T09:30:35.021Z,99974.06
2023-03-08T09:33:04.788Z,99987.53
2023-03-08T09:35:32.865Z,99990.25
2023-03-08T09:38:02.084Z,99980.28
2023-03-08T09:40:36.215Z,99987.06
2023-03-08T09:43:08.440Z,99975.91
2023-03-08T09:45:36.871Z,99987.06
2023-03-08T09:48:13.893Z,99986.94
2023-03-08T09:50:47.589Z,99973.03
2023-03-08T09:53:24.499Z,99972.16
2023-03-08T09:55:56.495Z,99963.69
2023-03-08T09:58:33.308Z,99968.81
2023-03-08T10:01:13.749Z,99952.56
2023-03-08T10:03:58.169Z,99973.25
2023-03-08T10:06:36.973Z,99981.72
2023-03-08T10:09:13.936Z,99962.19
2023-03-08T10:11:48.402Z,99981.41
2023-03-08T10:14:20.993Z,99980.91
2023-03-08T10:16:55.181Z,99981.75
2023-03-08T10:19:30.212Z,99978.31
2023-03-08T10:22:01.696Z,99977.84
2023-03-08T10:24:36.336Z,99969.44
2023-03-08T10:27:15.312Z,99972.53
2023-03-08T10:29:49.752Z,99948.84
2023-03-08T10:32:18.118Z,99949.94
2023-03-08T10:34:48.226Z,99979.69
2023-03-08T10:37:16.980Z,99978.31
2023-03-08T10:39:54.914Z,99976.59
2023-03-08T10:42:25.557Z,99971.44
2023-03-08T10:44:56.760Z,99974.06
2023-03-08T10:47:27.770Z,99964.28
2023-03-08T10:50:15.512Z,99968.78
2023-03-08T10:52:45.381Z,99966.56
2023-03-08T10:55:16.250Z,99955.53
2023-03-08T10:57:53.108Z,99960.84
2023-03-08T11:00:35.233Z,99969.47
2023-03-08T11:03:12.330Z,99958.88
2023-03-08T11:05:51.924Z,99956.72
2023-03-08T11:08:23.316Z,99953.97
2023-03-08T11:11:02.086Z,99913.81
2023-03-08T11:13:33.131Z,99943.06
2023-03-08T11:16:20.329Z,99942.78
2023-03-08T11:19:03.379Z,99940.13
2023-03-08T11:21:44.902Z,99928.00
2023-03-08T11:24:23.322Z,99917.69
2023-03-08T11:27:05.693Z,99873.22
2023-03-08T11:29:43.792Z,99926.81
2023-03-08T11:32:29.603Z,99912.97
2023-03-08T11:35:12.590Z,99918.16
2023-03-08T11:37:47.751Z,99915.25
2023-03-08T11:40:23.871Z,99907.41
2023-03-08T11:43:13.785Z,99898.28
2023-03-08T11:45:51.068Z,99901.75
2023-03-08T11:48:49.495Z,99905.75
2023-03-08T11:51:23.948Z,99903.22
2023-03-08T11:54:05.568Z,99902.97
2023-03-08T11:56:45.995Z,99901.75
2023-03-08T11:59:25.203Z,99892.81
2023-03-08T12:01:57.379Z,99893.38
2023-03-08T12:04:32.571Z,99897.66
2023-03-08T12:07:04.554Z,99897.91
2023-03-08T12:09:40.453Z,99902.22
2023-03-08T12:12:17.919Z,99896.75
2023-03-08T12:14:53.031Z,99888.97
2023-03-08T12:17:26.107Z,99894.47
2023-03-08T12:19:54.634Z,99892.13
2023-03-08T12:22:36.282Z,99898.94
2023-03-08T12:25:14.931Z,99889.72
2023-03-08T12:27:48.680Z,99892.13
2023-03-08T12:30:31.057Z,99900.72
2023-03-08T12:33:00.583Z,99897.41
2023-03-08T12:35:32.425Z,99895.63
2023-03-08T12:38:01.839Z,99888.94
2023-03-08T12:40:39.202Z,99880.53
2023-03-08T12:43:10.950Z,99876.47
2023-03-08T12:45:40.352Z,99863.91
2023-03-08T12:48:21.058Z,99879.44
2023-03-08T12:51:00.377Z,99887.63
2023-03-08T12:53:35.230Z,99884.88
2023-03-08T12:56:08.438Z,99888.81
2023-03-08T12:58:40.477Z,99880.56
2023-03-08T13:01:24.936Z,99884.84
2023-03-08T13:03:53.307Z,99881.66
2023-03-08T13:06:55.358Z,99897.13
2023-03-08T13:09:28.479Z,99887.94
2023-03-08T13:12:03.262Z,99875.28
2023-03-08T13:14:41.058Z,99890.25
2023-03-08T13:17:34.815Z,99888.28
2023-03-08T13:20:13.583Z,99882.22
2023-03-08T13:22:51.680Z,99880.25
2023-03-08T13:25:32.413Z,99875.75
2023-03-08T13:28:06.285Z,99871.78
2023-03-08T13:30:37.300Z,99862.84
2023-03-08T13:33:09.630Z,99873.44
2023-03-08T13:35:37.727Z,99850.44
2023-03-08T13:38:05.879Z,99874.75
2023-03-08T13:40:34.101Z,99854.59
2023-03-08T13:43:05.838Z,99874.59
2023-03-08T13:45:34.253Z,99884.81
2023-03-08T13:48:07.817Z,99879.91
2023-03-08T13:50:38.944Z,99886.63
2023-03-08T13:53:11.752Z,99860.03
2023-03-08T13:55:43.471Z,99859.03
2023-03-08T13:58:21.673Z,99831.00
2023-03-08T14:01:02.118Z,99868.66
2023-03-08T14:03:32.580Z,99859.00
2023-03-08T14:06:01.030Z,99841.13
2023-03-08T14:08:29.652Z,99853.16
2023-03-08T14:11:01.094Z,99850.38
2023-03-08T14:13:33.530Z,99848.94
2023-03-08T14:16:03.225Z,99829.94
2023-03-08T14:18:34.662Z,99838.47
2023-03-08T14:21:06.744Z,99847.25
2023-03-08T14:23:41.364Z,99851.06
2023-03-08T14:26:25.740Z,99855.56
2023-03-08T14:29:12.167Z,99844.50
2023-03-08T14:31:41.751Z,99841.59
2023-03-08T14:34:21.232Z,99845.94
2023-03-08T14:36:56.569Z,99802.63
2023-03-08T14:39:27.076Z,99841.66
2023-03-08T14:41:55.980Z,99834.69
2023-03-08T14:44:28.454Z,99832.91
2023-03-08T14:47:00.033Z,99830.75
2023-03-08T14:49:30.528Z,99842.28
2023-03-08T14:51:59.508Z,99834.69
2023-03-08T14:54:33.766Z,99837.81
2023-03-08T14:57:14.551Z,99827.72
2023-03-08T14:59:45.256Z,99836.53
2023-03-08T15:02:14.817Z,99827.47
2023-03-08T15:04:43.764Z,99828.88
2023-03-08T15:07:19.783Z,99851.38
2023-03-08T15:09:48.438Z,99834.97
2023-03-08T15:12:16.844Z,99834.47
2023-03-08T15:14:46.599Z,99826.88
2023-03-08T15:17:14.606Z,99818.94
2023-03-08T15:19:43.349Z,99850.22
2023-03-08T15:22:14.580Z,99836.56
2023-03-08T15:24:42.900Z,99840.84
2023-03-08T15:27:15.654Z,99837.84
2023-03-08T15:29:45.533Z,99825.06
2023-03-08T15:32:13.454Z,99839.69
2023-03-08T15:34:42.251Z,99842.31
2023-03-08T15:37:15.540Z,99838.19
2023-03-08T15:39:43.722Z,99843.44
2023-03-08T15:42:12.580Z,99758.31
2023-03-08T15:44:40.659Z,99845.59
2023-03-08T15:47:11.613Z,99839.56
2023-03-08T15:49:39.683Z,99832.34
2023-03-08T15:52:08.736Z,99831.78
2023-03-08T15:54:37.210Z,99837.19
2023-03-08T15:57:05.612Z,99834.53
2023-03-08T15:59:33.804Z,99845.56
2023-03-08T16:02:02.516Z,99837.84
2023-03-08T16:04:32.521Z,99849.97
2023-03-08T16:07:00.518Z,99847.31
2023-03-08T16:09:28.627Z,99836.84
2023-03-08T16:11:56.853Z,99848.91
2023-03-08T16:14:24.832Z,99841.59
2023-03-08T16:16:53.117Z,99842.78
2023-03-08T16:19:21.984Z,99836.84
2023-03-08T16:21:52.827Z,99826.56
2023-03-08T16:24:20.804Z,99837.78
2023-03-08T16:26:48.983Z,99839.13
2023-03-08T16:29:17.390Z,99834.47
2023-03-08T16:31:45.632Z,99849.16
2023-03-08T16:34:14.619Z,99850.88
2023-03-08T16:36:42.992Z,99847.97
2023-03-08T16:39:12.567Z,99843.88
2023-03-08T16:41:41.600Z,99858.38
2023-03-08T16:44:19.638Z,99850.81
2023-03-08T16:46:47.625Z,99857.72
2023-03-08T16:49:16.679Z,99864.06
2023-03-08T16:51:44.843Z,99861.25
2023-03-08T16:54:14.968Z,99863.59
2023-03-08T16:56:44.700Z,99872.84
2023-03-08T16:59:14.899Z,99880.06
2023-03-08T17:01:43.340Z,99882.91
2023-03-08T17:04:11.941Z,99880.06
2023-03-08T17:06:40.134Z,99881.38
2023-03-08T17:09:08.147Z,99857.56
2023-03-08T17:11:37.419Z,99876.13
2023-03-08T17:14:08.140Z,99881.00
2023-03-08T17:16:36.959Z,99875.53
2023-03-08T17:19:07.068Z,99875.91
2023-03-08T17:21:38.215Z,99888.13
2023-03-08T17:24:08.417Z,99892.03
2023-03-08T17:26:42.447Z,99891.19
2023-03-08T17:29:10.789Z,99900.44
2023-03-08T17:31:40.948Z,99890.03
2023-03-08T17:34:09.240Z,99894.28
2023-03-08T17:36:37.302Z,99899.94
2023-03-08T17:39:05.370Z,99901.72
2023-03-08T17:41:34.410Z,99896.88
2023-03-08T17:44:04.023Z,99907.31
2023-03-08T17:46:32.095Z,99907.75
2023-03-08T17:49:00.138Z,99912.03
2023-03-08T17:51:31.500Z,99910.50
2023-03-08T17:54:01.215Z,99903.44
2023-03-08T17:56:31.773Z,99907.13
2023-03-08T17:59:01.562Z,99910.66
2023-03-08T18:01:32.096Z,99911.13
2023-03-08T18:04:00.439Z,99913.50
2023-03-08T18:06:31.129Z,99926.84
2023-03-08T18:09:00.844Z,99927.22
2023-03-08T18:11:29.583Z,99933.47
2023-03-08T18:13:58.153Z,99933.19
2023-03-08T18:16:26.368Z,99940.72
2023-03-08T18:18:55.755Z,99942.50
2023-03-08T18:21:23.673Z,99951.09
2023-03-08T18:23:54.686Z,99938.19
2023-03-08T18:26:23.006Z,99941.84
2023-03-08T18:28:51.196Z,99943.66
2023-03-08T18:31:23.292Z,99950.91
2023-03-08T18:33:54.614Z,99944.38
2023-03-08T18:36:24.833Z,99951.97
2023-03-08T18:38:52.785Z,99954.38
2023-03-08T18:41:23.293Z,99942.53
2023-03-08T18:43:52.129Z,99944.50
2023-03-08T18:46:22.497Z,99941.28
2023-03-08T18:48:52.097Z,99921.88
2023-03-08T18:51:20.026Z,99942.22
2023-03-08T18:53:49.465Z,99944.94
2023-03-08T18:56:17.529Z,99942.72
2023-03-08T18:58:45.462Z,99945.44
2023-03-08T19:01:15.155Z,99940.03
2023-03-08T19:03:44.353Z,99936.69
2023-03-08T19:06:13.759Z,99941.47
2023-03-08T19:08:42.031Z,99933.16
2023-03-08T19:11:16.852Z,99924.84
2023-03-08T19:13:45.061Z,99931.94
2023-03-08T19:16:19.647Z,99931.00
2023-03-08T19:18:48.037Z,99928.59
2023-03-08T19:21:17.563Z,99919.66
2023-03-08T19:23:45.631Z,99934.44
2023-03-08T19:26:35.857Z,99933.38
2023-03-08T19:29:05.642Z,99930.09
2023-03-08T19:31:34.108Z,99929.34
2023-03-08T19:34:02.716Z,99938.69
2023-03-08T19:36:30.628Z,99936.31
2023-03-08T19:38:58.640Z,99924.69
2023-03-08T19:41:28.116Z,99924.78
2023-03-08T19:43:56.032Z,99939.94
2023-03-08T19:46:23.994Z,99937.25
2023-03-08T19:48:52.316Z,99933.59
2023-03-08T19:51:21.614Z,99941.94
2023-03-08T19:53:49.552Z,99934.13
2023-03-08T19:56:19.778Z,99933.50
2023-03-08T19:58:49.779Z,99936.31
2023-03-08T20:01:19.873Z,99944.63
2023-03-08T20:03:48.489Z,99939.84
2023-03-08T20:06:24.283Z,99924.06
2023-03-08T20:08:53.215Z,99934.94
2023-03-08T20:11:21.982Z,99922.59
2023-03-08T20:13:51.752Z,99929.34
2023-03-08T20:16:20.965Z,99928.00
2023-03-08T20:18:50.352Z,99933.50
2023-03-08T20:21:19.244Z,99904.16
2023-03-08T20:23:51.022Z,99931.53
2023-03-08T20:26:19.125Z,99934.97
2023-03-08T20:28:47.147Z,99938.00
2023-03-08T20:31:16.622Z,99940.34
2023-03-08T20:33:45.207Z,99938.59
2023-03-08T20:36:13.291Z,99926.78
2023-03-08T20:38:41.727Z,99929.78
2023-03-08T20:41:13.160Z,99928.66
2023-03-08T20:43:41.204Z,99922.72
2023-03-08T20:46:11.747Z,99932.38
2023-03-08T20:48:44.608Z,99920.53
2023-03-08T20:51:15.106Z,99926.97
2023-03-08T20:53:43.414Z,99912.66
2023-03-08T20:56:14.691Z,99908.69
2023-03-08T20:58:43.285Z,99930.41
2023-03-08T21:01:12.990Z,99915.97
2023-03-08T21:03:43.136Z,99928.75
2023-03-08T21:06:12.800Z,99926.88
2023-03-08T21:08:40.889Z,99915.75
2023-03-08T21:11:08.938Z,99928.22
2023-03-08T21:13:37.158Z,99940.47
2023-03-08T21:16:06.747Z,99926.56
2023-03-08T21:18:34.794Z,99920.72
2023-03-08T21:21:04.420Z,99934.59
2023-03-08T21:23:32.450Z,99933.06
2023-03-08T21:26:01.447Z,99919.13
2023-03-08T21:28:29.518Z,99930.94
2023-03-08T21:30:57.623Z,99924.66
2023-03-08T21:33:25.573Z,99911.44
2023-03-08T21:35:53.857Z,99921.31
2023-03-08T21:38:24.758Z,99911.66
2023-03-08T21:40:52.797Z,99913.34
2023-03-08T21:43:20.833Z,99895.28
2023-03-08T21:45:49.363Z,99906.19
2023-03-08T21:48:17.265Z,99905.97
2023-03-08T21:50:45.289Z,99905.25
2023-03-08T21:53:13.612Z,99904.53
2023-03-08T21:55:43.336Z,99908.06
2023-03-08T21:58:11.252Z,99904.72
2023-03-08T22:00:39.279Z,99901.41
2023-03-08T22:03:07.277Z,99887.94
2023-03-08T22:05:35.180Z,99908.25
2023-03-08T22:08:03.178Z,99905.09
2023-03-08T22:10:31.161Z,99901.72
2023-03-08T22:13:00.939Z,99906.53
2023-03-08T22:15:29.005Z,99907.88
2023-03-08T22:17:57.297Z,99900.81
2023-03-08T22:20:25.368Z,99909.22
2023-03-08T22:22:53.416Z,99904.88
2023-03-08T22:25:21.515Z,99905.84
2023-03-08T22:27:49.791Z,99905.56
2023-03-08T22:30:20.818Z,99905.44
2023-03-08T22:32:48.992Z,99897.22
2023-03-08T22:35:17.284Z,99897.09
2023-03-08T22:37:45.819Z,99895.16
2023-03-08T22:40:14.544Z,99896.03
2023-03-08T22:42:42.450Z,99895.19
2023-03-08T22:45:11.821Z,99877.00
2023-03-08T22:47:41.273Z,99898.91
2023-03-08T22:50:11.031Z,99894.75
2023-03-08T22:52:39.142Z,99900.38
2023-03-08T22:55:07.973Z,99894.16
2023-03-08T22:57:38.204Z,99884.78
2023-03-08T23:00:14.342Z,99885.53
2023-03-08T23:02:45.115Z,99887.06
2023-03-08T23:05:13.901Z,99888.13
2023-03-08T23:07:41.863Z,99888.53
2023-03-08T23:10:11.475Z,99888.88
2023-03-08T23:12:39.769Z,99885.06
2023-03-08T23:15:09.447Z,99878.28
2023-03-08T23:17:37.456Z,99877.69
2023-03-08T23:20:07.822Z,99886.78
2023-03-08T23:22:35.727Z,99891.00
2023-03-08T23:25:03.969Z,99896.69
2023-03-08T23:27:31.971Z,99896.97
2023-03-08T23:29:59.924Z,99904.28
2023-03-08T23:32:28.016Z,99904.41
2023-03-08T23:34:56.054Z,99900.78
2023-03-08T23:37:25.553Z,99905.78
2023-03-08T23:39:53.585Z,99895.84
2023-03-08T23:42:21.535Z,99897.28
2023-03-08T23:44:49.452Z,99887.56
2023-03-08T23:47:17.847Z,99893.22
2023-03-08T23:49:45.845Z,99887.50
2023-03-08T23:52:13.717Z,99891.56
2023-03-08T23:54:43.110Z,99893.69
2023-03-08T23:57:11.018Z,99884.16
2023-03-08T23:59:38.998Z,99880.66
